createdAt,value
2022-11-10T00:04:15.323Z,70.39
2022-11-10T00:11:35.528Z,68.46
2022-11-10T00:18:55.771Z,68.35
2022-11-10T00:26:17.758Z,68.28
2022-11-10T00:33:38.873Z,68.46
2022-11-10T00:41:00.073Z,68.48
2022-11-10T00:48:20.043Z,68.40
2022-11-10T00:55:40.802Z,67.41
2022-11-10T01:03:02.483Z,67.08
2022-11-10T01:10:22.761Z,66.71
2022-11-10T01:17:42.941Z,66.18
2022-11-10T01:25:03.050Z,66.04
2022-11-10T01:32:23.195Z,65.66
2022-11-10T01:39:43.667Z,65.33
2022-11-10T01:47:03.888Z,65.33
2022-11-10T01:54:25.448Z,65.14
2022-11-10T02:01:48.854Z,65.48
2022-11-10T02:09:08.887Z,66.29
2022-11-10T02:16:28.913Z,66.23
2022-11-10T02:23:50.868Z,66.88
2022-11-10T02:31:11.127Z,66.93
2022-11-10T02:38:31.254Z,67.30
2022-11-10T02:45:51.382Z,67.08
2022-11-10T02:53:11.735Z,67.04
2022-11-10T03:00:31.979Z,66.68
2022-11-10T03:07:56.291Z,66.73
2022-11-10T03:15:16.412Z,66.46
2022-11-10T03:22:37.006Z,65.97
2022-11-10T03:29:57.097Z,66.48
2022-11-10T03:37:17.375Z,66.49
2022-11-10T03:44:37.421Z,66.99
2022-11-10T03:51:57.554Z,66.77
2022-11-10T03:59:17.697Z,66.79
2022-11-10T04:06:56.887Z,67.14
2022-11-10T04:14:35.514Z,67.06
2022-11-10T04:21:55.670Z,67.38
2022-11-10T04:29:19.750Z,67.76
2022-11-10T04:36:41.620Z,67.85
2022-11-10T04:44:02.086Z,68.20
2022-11-10T04:51:24.180Z,68.64
2022-11-10T04:58:44.697Z,69.00
2022-11-10T05:06:05.178Z,68.69
2022-11-10T05:13:25.258Z,68.69
2022-11-10T05:20:45.325Z,69.00
2022-11-10T05:28:05.868Z,69.30
2022-11-10T05:35:25.880Z,69.81
2022-11-10T05:42:47.294Z,70.14
2022-11-10T05:50:08.271Z,70.39
2022-11-10T05:57:28.359Z,71.04
2022-11-10T06:04:48.514Z,71.31
2022-11-10T06:12:08.954Z,71.53
2022-11-10T06:19:29.190Z,71.53
2022-11-10T06:26:49.488Z,72.16
2022-11-10T06:34:09.800Z,72.07
2022-11-10T06:41:30.126Z,72.32
2022-11-10T06:48:50.345Z,72.38
2022-11-10T06:56:10.711Z,72.79
2022-11-10T07:03:31.063Z,73.65
2022-11-10T07:10:52.757Z,73.35
2022-11-10T07:18:13.009Z,73.41
2022-11-10T07:25:36.711Z,73.08
2022-11-10T07:33:06.677Z,73.15
2022-11-10T07:40:27.984Z,72.88
2022-11-10T07:47:48.504Z,72.53
2022-11-10T07:55:08.737Z,72.51
2022-11-10T08:02:28.924Z,72.35
2022-11-10T08:09:50.487Z,72.66
2022-11-10T08:17:10.586Z,72.36
2022-11-10T08:24:30.848Z,72.01
2022-11-10T08:31:51.930Z,71.85
2022-11-10T08:39:13.284Z,71.17
2022-11-10T08:46:37.751Z,70.95
2022-11-10T08:53:57.961Z,70.51
2022-11-10T09:01:18.001Z,70.52
2022-11-10T09:08:38.344Z,69.80
2022-11-10T09:16:02.502Z,69.18
2022-11-10T09:23:24.708Z,69.09
2022-11-10T09:30:48.926Z,68.27
2022-11-10T09:38:09.659Z,67.92
2022-11-10T09:45:36.387Z,67.72
2022-11-10T09:52:59.452Z,67.69
2022-11-10T10:00:19.421Z,67.33
2022-11-10T10:07:51.550Z,66.73
2022-11-10T10:15:14.778Z,66.17
2022-11-10T10:22:56.307Z,65.51
2022-11-10T10:30:18.318Z,65.48
2022-11-10T10:37:58.372Z,65.18
2022-11-10T10:45:18.721Z,64.80
2022-11-10T10:52:38.770Z,64.13
2022-11-10T11:00:31.101Z,63.77
2022-11-10T11:08:01.281Z,64.59
2022-11-10T11:15:21.684Z,64.31
2022-11-10T11:22:52.654Z,64.43
2022-11-10T11:30:21.106Z,63.58
2022-11-10T11:37:41.510Z,63.26
2022-11-10T11:45:29.737Z,62.52
2022-11-10T11:53:03.347Z,62.14
2022-11-10T12:00:23.487Z,61.36
2022-11-10T12:07:50.146Z,60.77
2022-11-10T12:15:33.199Z,60.55
2022-11-10T12:23:08.988Z,60.41
2022-11-10T12:30:29.155Z,60.64
2022-11-10T12:38:16.280Z,60.27
2022-11-10T12:45:42.619Z,59.99
2022-11-10T12:53:05.991Z,59.55
2022-11-10T13:00:31.699Z,60.11
2022-11-10T13:08:03.665Z,60.14
2022-11-10T13:15:35.713Z,59.57
2022-11-10T13:22:55.721Z,58.22
2022-11-10T13:30:39.392Z,57.93
2022-11-10T13:37:59.651Z,57.05
2022-11-10T13:45:32.269Z,57.24
2022-11-10T13:52:56.540Z,57.83
2022-11-10T14:00:18.044Z,57.92
2022-11-10T14:07:42.506Z,57.89
2022-11-10T14:15:06.893Z,57.99
2022-11-10T14:22:35.156Z,57.99
2022-11-10T14:30:06.250Z,57.88
2022-11-10T14:37:28.138Z,58.83
2022-11-10T14:44:48.620Z,58.97
2022-11-10T14:52:09.075Z,59.34
2022-11-10T14:59:29.165Z,58.81
2022-11-10T15:06:49.328Z,58.90
2022-11-10T15:14:46.423Z,59.02
2022-11-10T15:22:12.449Z,59.01
2022-11-10T15:29:32.650Z,59.22
2022-11-10T15:37:09.720Z,58.99
2022-11-10T15:44:29.656Z,58.99
2022-11-10T15:51:51.107Z,59.22
2022-11-10T15:59:11.576Z,59.46
2022-11-10T16:06:32.344Z,59.89
2022-11-10T16:13:52.085Z,60.53
2022-11-10T16:21:22.637Z,60.59
2022-11-10T16:28:44.189Z,60.92
2022-11-10T16:36:04.533Z,60.77
2022-11-10T16:43:24.895Z,60.83
2022-11-10T16:50:45.780Z,61.15
2022-11-10T16:58:05.942Z,61.55
2022-11-10T17:05:26.118Z,62.03
2022-11-10T17:12:46.576Z,62.58
2022-11-10T17:20:07.294Z,62.97
2022-11-10T17:27:27.886Z,63.04
2022-11-10T17:34:48.060Z,63.01
2022-11-10T17:42:12.769Z,63.15
2022-11-10T17:49:33.071Z,62.84
2022-11-10T17:56:53.281Z,62.35
2022-11-10T18:04:13.806Z,62.01
2022-11-10T18:11:34.083Z,61.90
2022-11-10T18:18:54.242Z,61.34
2022-11-10T18:26:14.518Z,60.71
2022-11-10T18:33:34.903Z,60.57
2022-11-10T18:40:54.791Z,60.85
2022-11-10T18:48:14.768Z,60.87
2022-11-10T18:55:34.891Z,61.15
2022-11-10T19:02:55.934Z,60.95
2022-11-10T19:10:16.129Z,60.75
2022-11-10T19:17:36.376Z,60.84
2022-11-10T19:25:12.062Z,61.22
2022-11-10T19:32:32.257Z,61.66
2022-11-10T19:39:52.680Z,62.16
2022-11-10T19:47:12.935Z,62.34
2022-11-10T19:54:33.169Z,62.65
2022-11-10T20:01:53.455Z,63.03
2022-11-10T20:09:13.940Z,63.11
2022-11-10T20:16:34.075Z,63.56
2022-11-10T20:23:54.910Z,64.69
2022-11-10T20:31:20.201Z,65.19
2022-11-10T20:38:40.597Z,65.31
2022-11-10T20:46:00.833Z,65.59
2022-11-10T20:53:21.209Z,66.38
2022-11-10T21:00:43.352Z,66.16
2022-11-10T21:08:03.601Z,66.44
2022-11-10T21:15:23.773Z,67.10
2022-11-10T21:22:43.697Z,66.44
2022-11-10T21:30:05.476Z,66.74
2022-11-10T21:37:26.930Z,66.67
2022-11-10T21:44:47.395Z,66.87
2022-11-10T21:52:07.601Z,66.92
2022-11-10T21:59:27.802Z,67.62
2022-11-10T22:07:06.647Z,67.46
2022-11-10T22:14:45.445Z,68.26
2022-11-10T22:22:06.004Z,67.92
2022-11-10T22:29:31.159Z,68.00
2022-11-10T22:36:53.540Z,68.08
2022-11-10T22:44:14.557Z,68.62
2022-11-10T22:51:34.705Z,68.84
2022-11-10T22:58:59.652Z,69.33
2022-11-10T23:06:20.726Z,69.00
2022-11-10T23:13:41.014Z,69.93
2022-11-10T23:21:05.232Z,70.06
2022-11-10T23:28:29.459Z,70.29
2022-11-10T23:35:49.740Z,70.96
2022-11-10T23:43:09.993Z,71.04
2022-11-10T23:50:30.304Z,71.66
2022-11-10T23:57:50.673Z,71.61
